Time;durP1;ratioP1;P1;durP2;ratioP2;P2;SDS_P1;SDS_P2;PMS_P1;PMS_P2;Temp;Humidity;BMP_temperature;BMP_pressure;BME280_temperature;BME280_humidity;BME280_pressure;Samples;Min_cycle;Max_cycle;Signal;HPM_P1;HPM_P2
2021/09/07 00:18:09;;;;;;;6.57;4.32;;;;;;;;;;4308406;33;20106;-65
2021/09/07 00:20:35;;;;;;;6.35;3.90;;;;;;;;;;4313994;33;20123;-63
2021/09/07 00:23:01;;;;;;;5.80;4.15;;;;;;;;;;4297066;33;20092;-61
2021/09/07 00:25:27;;;;;;;7.05;3.37;;;;;;;;;;4290776;33;20117;-65
2021/09/07 00:27:53;;;;;;;4.72;3.37;;;;;;;;;;4303414;33;20127;-66
2021/09/07 00:30:19;;;;;;;6.78;3.67;;;;;;;;;;4303944;33;20190;-61
2021/09/07 00:32:44;;;;;;;4.30;3.22;;;;;;;;;;4297482;33;20145;-62
2021/09/07 00:35:14;;;;;;;4.10;3.40;;;;;;;;;;4296977;33;20115;-61
2021/09/07 00:37:40;;;;;;;4.85;3.47;;;;;;;;;;4292027;33;20181;-65
2021/09/07 00:40:07;;;;;;;7.40;3.42;;;;;;;;;;4305277;33;20107;-64
2021/09/07 00:42:34;;;;;;;5.47;3.37;;;;;;;;;;4305128;33;20107;-65
2021/09/07 00:45:01;;;;;;;4.07;3.08;;;;;;;;;;4305074;33;20193;-66
2021/09/07 00:47:27;;;;;;;5.37;3.00;;;;;;;;;;4291576;33;20619;-64
2021/09/07 00:49:53;;;;;;;5.87;3.05;;;;;;;;;;4291667;33;20486;-61
2021/09/07 00:52:19;;;;;;;3.05;2.75;;;;;;;;;;4298211;33;20193;-63
2021/09/07 00:54:45;;;;;;;2.90;2.60;;;;;;;;;;4277274;33;20143;-61
2021/09/07 00:57:11;;;;;;;3.60;2.40;;;;;;;;;;4277069;33;20116;-64
2021/09/07 00:59:37;;;;;;;3.83;2.67;;;;;;;;;;4290492;33;20127;-64
2021/09/07 01:02:04;;;;;;;3.22;2.55;;;;;;;;;;4290049;33;20117;-63
2021/09/07 01:04:32;;;;;;;5.72;2.70;;;;;;;;;;4294010;33;20210;-61
2021/09/07 01:06:59;;;;;;;4.55;2.45;;;;;;;;;;4301518;33;20095;-64
2021/09/07 01:09:25;;;;;;;5.15;2.47;;;;;;;;;;4303564;33;20092;-66
2021/09/07 01:11:50;;;;;;;5.32;2.85;;;;;;;;;;4291499;33;20110;-66
2021/09/07 01:14:19;;;;;;;5.90;2.25;;;;;;;;;;4305050;33;20113;-61
2021/09/07 01:16:45;;;;;;;3.97;2.40;;;;;;;;;;4304536;33;20111;-65
2021/09/07 01:19:11;;;;;;;2.85;2.55;;;;;;;;;;4304704;33;20513;-63
2021/09/07 01:21:37;;;;;;;3.15;2.83;;;;;;;;;;4291623;33;20150;-64
2021/09/07 01:24:03;;;;;;;4.87;2.55;;;;;;;;;;4304711;33;20092;-64
2021/09/07 01:26:29;;;;;;;4.00;2.67;;;;;;;;;;4304644;33;20127;-64
2021/09/07 01:28:55;;;;;;;4.15;2.80;;;;;;;;;;4304584;33;20122;-66
2021/09/07 01:31:21;;;;;;;4.55;2.80;;;;;;;;;;4304614;33;20119;-63
2021/09/07 01:33:47;;;;;;;3.70;2.60;;;;;;;;;;4304550;33;20129;-61
2021/09/07 01:36:14;;;;;;;3.42;2.67;;;;;;;;;;4284694;33;20474;-65
2021/09/07 01:38:41;;;;;;;3.53;2.55;;;;;;;;;;4290055;33;20499;-63
2021/09/07 01:41:07;;;;;;;3.80;2.70;;;;;;;;;;4290200;33;20439;-61
2021/09/07 01:43:32;;;;;;;3.80;2.50;;;;;;;;;;4289988;33;20187;-63
2021/09/07 01:46:02;;;;;;;4.30;2.80;;;;;;;;;;4290273;33;20116;-66
2021/09/07 01:48:39;;;;;;;3.67;2.65;;;;;;;;;;4290006;33;20114;-65
2021/09/07 01:51:08;;;;;;;4.80;3.12;;;;;;;;;;4293022;33;20099;-62
2021/09/07 01:53:34;;;;;;;3.75;2.45;;;;;;;;;;4296640;33;20217;-66
2021/09/07 01:56:00;;;;;;;3.90;2.33;;;;;;;;;;4291637;33;20094;-61
2021/09/07 01:58:26;;;;;;;3.60;2.40;;;;;;;;;;4304546;33;20693;-65
2021/09/07 02:00:51;;;;;;;4.50;2.50;;;;;;;;;;4300251;33;20246;-63
2021/09/07 02:03:17;;;;;;;3.60;2.12;;;;;;;;;;4300429;33;20107;-61
2021/09/07 02:05:43;;;;;;;3.33;2.42;;;;;;;;;;4289896;33;20613;-63
2021/09/07 02:08:09;;;;;;;4.55;2.33;;;;;;;;;;4302637;33;20114;-61
2021/09/07 02:10:35;;;;;;;4.70;2.45;;;;;;;;;;4304305;33;20143;-63
2021/09/07 02:13:01;;;;;;;4.03;2.47;;;;;;;;;;4304367;33;20126;-64
2021/09/07 02:15:29;;;;;;;3.10;2.20;;;;;;;;;;4304345;33;20119;-62
2021/09/07 02:18:07;;;;;;;4.15;2.65;;;;;;;;;;4287864;33;20643;-62
2021/09/07 02:20:33;;;;;;;3.40;2.30;;;;;;;;;;4289961;33;20529;-61
2021/09/07 02:22:59;;;;;;;3.12;2.08;;;;;;;;;;4289757;33;20549;-65
2021/09/07 02:25:25;;;;;;;4.50;2.37;;;;;;;;;;4289855;33;20120;-65
2021/09/07 02:27:51;;;;;;;3.95;1.90;;;;;;;;;;4277453;33;20424;-62
2021/09/07 02:30:17;;;;;;;2.92;2.47;;;;;;;;;;4282250;33;20115;-65
2021/09/07 02:32:43;;;;;;;5.25;2.28;;;;;;;;;;4283928;33;20116;-65
2021/09/07 02:35:09;;;;;;;2.45;2.10;;;;;;;;;;4280983;33;20136;-63
2021/09/07 02:37:35;;;;;;;2.80;2.00;;;;;;;;;;4285522;33;20126;-62
2021/09/07 02:40:01;;;;;;;2.95;2.20;;;;;;;;;;4278867;33;20112;-62
2021/09/07 02:42:27;;;;;;;3.62;2.35;;;;;;;;;;4295283;33;20127;-61
2021/09/07 02:44:52;;;;;;;4.10;2.53;;;;;;;;;;4281398;33;20147;-66
2021/09/07 02:47:18;;;;;;;2.55;2.03;;;;;;;;;;4284349;33;20115;-63
2021/09/07 02:49:44;;;;;;;5.90;2.17;;;;;;;;;;4283279;33;20128;-65
2021/09/07 02:52:10;;;;;;;3.45;2.17;;;;;;;;;;4273841;33;20120;-62
2021/09/07 02:54:36;;;;;;;4.97;2.17;;;;;;;;;;4280855;33;20116;-64
2021/09/07 02:57:02;;;;;;;3.80;2.50;;;;;;;;;;4288884;33;20556;-64
2021/09/07 02:59:28;;;;;;;9.68;2.70;;;;;;;;;;4284335;33;20533;-67
2021/09/07 03:01:54;;;;;;;8.65;2.75;;;;;;;;;;4282037;33;20123;-65
2021/09/07 03:04:19;;;;;;;6.43;2.45;;;;;;;;;;4275952;33;20112;-65
2021/09/07 03:06:48;;;;;;;6.47;2.92;;;;;;;;;;4275019;33;20540;-62
2021/09/07 03:09:15;;;;;;;7.53;2.87;;;;;;;;;;4284430;33;20156;-62
2021/09/07 03:14:16;;;;;;;5.90;3.60;;;;;;;;;;4488330;28;20127;-60
2021/09/07 03:16:42;;;;;;;5.90;3.40;;;;;;;;;;4309314;33;20229;-62
2021/09/07 03:19:07;;;;;;;6.22;3.33;;;;;;;;;;4306456;33;20123;-64
2021/09/07 03:21:33;;;;;;;8.52;3.35;;;;;;;;;;4293352;33;20140;-64
2021/09/07 03:24:00;;;;;;;7.60;3.05;;;;;;;;;;4306216;33;20556;-66
2021/09/07 03:26:49;;;;;;;8.10;3.33;;;;;;;;;;4305595;33;20517;-66
2021/09/07 03:29:15;;;;;;;6.72;2.85;;;;;;;;;;4307320;33;20216;-63
2021/09/07 03:31:40;;;;;;;9.77;2.60;;;;;;;;;;4309763;33;20127;-64
2021/09/07 03:34:06;;;;;;;6.47;2.95;;;;;;;;;;4308713;33;20586;-62
2021/09/07 03:36:32;;;;;;;8.13;3.67;;;;;;;;;;4309761;33;20190;-61
2021/09/07 03:39:58;;;;;;;10.43;4.47;;;;;;;;;;4298867;33;20118;-61
2021/09/07 03:42:25;;;;;;;12.77;3.70;;;;;;;;;;4304625;33;20602;-62
2021/09/07 03:44:51;;;;;;;12.40;3.92;;;;;;;;;;4314482;33;20117;-63
2021/09/07 03:47:17;;;;;;;6.05;3.50;;;;;;;;;;4301053;33;20454;-65
2021/09/07 03:49:43;;;;;;;9.90;3.62;;;;;;;;;;4301678;33;20126;-62
2021/09/07 03:52:09;;;;;;;10.18;4.03;;;;;;;;;;4292007;33;20127;-61
2021/09/07 03:54:36;;;;;;;7.50;3.80;;;;;;;;;;4295920;33;20110;-61
2021/09/07 03:57:01;;;;;;;8.88;3.58;;;;;;;;;;4307992;33;20876;-63
2021/09/07 03:59:28;;;;;;;6.50;3.00;;;;;;;;;;4309175;33;20107;-62
2021/09/07 04:01:54;;;;;;;10.57;3.65;;;;;;;;;;4297588;33;20106;-63
2021/09/07 04:04:21;;;;;;;8.18;3.10;;;;;;;;;;4309009;33;20285;-65
2021/09/07 04:06:47;;;;;;;6.45;3.37;;;;;;;;;;4309998;33;20191;-65
2021/09/07 04:09:13;;;;;;;7.80;3.35;;;;;;;;;;4309070;33;20123;-65
2021/09/07 04:11:39;;;;;;;6.20;3.00;;;;;;;;;;4280252;33;20117;-64
2021/09/07 04:14:05;;;;;;;6.20;3.03;;;;;;;;;;4301974;33;20115;-63
2021/09/07 04:16:30;;;;;;;3.90;2.67;;;;;;;;;;4297919;33;20478;-63
2021/09/07 04:18:56;;;;;;;4.75;3.00;;;;;;;;;;4315542;33;20541;-65
2021/09/07 04:21:22;;;;;;;4.53;3.12;;;;;;;;;;4301707;33;20131;-64
2021/09/07 04:23:48;;;;;;;8.57;3.12;;;;;;;;;;4302020;33;20241;-65
2021/09/07 04:26:14;;;;;;;7.28;3.33;;;;;;;;;;4301878;33;20127;-65
2021/09/07 04:28:40;;;;;;;4.68;2.50;;;;;;;;;;4315444;33;20138;-64
2021/09/07 04:31:06;;;;;;;3.87;2.62;;;;;;;;;;4317298;33;20532;-64
2021/09/07 04:33:31;;;;;;;5.22;2.35;;;;;;;;;;4317509;33;20613;-64
2021/09/07 04:35:57;;;;;;;3.22;2.70;;;;;;;;;;4303868;33;20106;-63
2021/09/07 04:38:23;;;;;;;6.53;2.80;;;;;;;;;;4319513;33;20103;-63
2021/09/07 04:40:49;;;;;;;5.45;3.25;;;;;;;;;;4319530;33;20115;-63
2021/09/07 04:43:15;;;;;;;5.20;3.08;;;;;;;;;;4309589;33;20119;-61
2021/09/07 04:45:41;;;;;;;6.82;3.60;;;;;;;;;;4304933;33;20534;-65
2021/09/07 04:48:07;;;;;;;5.15;3.80;;;;;;;;;;4291342;33;20131;-64
2021/09/07 04:50:33;;;;;;;5.70;3.97;;;;;;;;;;4291559;33;20201;-63
2021/09/07 04:52:58;;;;;;;4.90;3.30;;;;;;;;;;4305125;33;20107;-60
2021/09/07 04:55:24;;;;;;;5.00;3.65;;;;;;;;;;4304977;33;20262;-62
2021/09/07 04:57:50;;;;;;;6.15;2.92;;;;;;;;;;4304692;33;20133;-61
2021/09/07 05:00:17;;;;;;;4.70;2.95;;;;;;;;;;4304882;33;20100;-61
2021/09/07 05:02:43;;;;;;;5.70;3.10;;;;;;;;;;4304826;33;20091;-61
2021/09/07 05:05:09;;;;;;;3.58;3.08;;;;;;;;;;4304922;33;20115;-62
2021/09/07 05:07:35;;;;;;;5.18;3.20;;;;;;;;;;4304692;33;20192;-62
2021/09/07 05:10:03;;;;;;;8.35;3.10;;;;;;;;;;4291738;33;20152;-65
2021/09/07 05:12:29;;;;;;;6.60;3.75;;;;;;;;;;4304749;33;20099;-64
2021/09/07 05:14:55;;;;;;;2.90;2.37;;;;;;;;;;4304967;33;20150;-65
2021/09/07 05:17:21;;;;;;;5.82;3.08;;;;;;;;;;4291110;33;20112;-65
2021/09/07 05:19:47;;;;;;;4.40;2.30;;;;;;;;;;4304999;33;20114;-64
2021/09/07 05:22:13;;;;;;;2.95;2.40;;;;;;;;;;4303202;33;20116;-64
2021/09/07 05:24:38;;;;;;;4.25;2.78;;;;;;;;;;4304719;33;20571;-64
2021/09/07 05:27:04;;;;;;;4.53;3.03;;;;;;;;;;4304798;33;20145;-64
2021/09/07 05:29:30;;;;;;;3.97;2.60;;;;;;;;;;4304633;33;20522;-64
2021/09/07 05:31:56;;;;;;;2.92;2.17;;;;;;;;;;4304402;33;20098;-64
2021/09/07 05:34:22;;;;;;;5.07;2.30;;;;;;;;;;4304654;33;20102;-63
2021/09/07 05:36:49;;;;;;;3.65;2.47;;;;;;;;;;4304372;33;20099;-63
2021/09/07 05:39:15;;;;;;;2.53;1.98;;;;;;;;;;4304433;33;20095;-64
2021/09/07 05:41:41;;;;;;;3.85;2.03;;;;;;;;;;4304342;33;20134;-64
2021/09/07 05:44:07;;;;;;;4.03;2.35;;;;;;;;;;4304308;33;20131;-64
2021/09/07 05:46:34;;;;;;;6.22;2.28;;;;;;;;;;4318837;33;20119;-64
2021/09/07 05:49:00;;;;;;;3.20;2.33;;;;;;;;;;4318843;33;20624;-64
2021/09/07 05:51:26;;;;;;;3.42;2.20;;;;;;;;;;4318876;33;20111;-64
2021/09/07 05:53:52;;;;;;;3.17;2.05;;;;;;;;;;4318817;33;20195;-64
2021/09/07 05:56:20;;;;;;;3.12;2.12;;;;;;;;;;4305406;33;20095;-64
2021/09/07 05:58:46;;;;;;;2.83;1.90;;;;;;;;;;4318889;33;20473;-64
2021/09/07 06:01:11;;;;;;;6.32;2.50;;;;;;;;;;4318735;33;20115;-63
2021/09/07 06:03:37;;;;;;;6.68;2.78;;;;;;;;;;4318913;33;20119;-63
2021/09/07 06:06:03;;;;;;;3.95;2.28;;;;;;;;;;4318924;33;20123;-64
2021/09/07 06:08:29;;;;;;;4.47;2.20;;;;;;;;;;4318825;33;20137;-64
2021/09/07 06:10:55;;;;;;;2.17;1.90;;;;;;;;;;4318602;33;20127;-64
2021/09/07 06:13:21;;;;;;;5.25;2.10;;;;;;;;;;4317196;33;20611;-63
2021/09/07 06:15:48;;;;;;;2.90;2.00;;;;;;;;;;4318601;33;20181;-63
2021/09/07 06:18:14;;;;;;;5.68;2.17;;;;;;;;;;4318590;33;20208;-64
2021/09/07 06:20:40;;;;;;;2.58;2.00;;;;;;;;;;4305163;33;20498;-64
2021/09/07 06:23:06;;;;;;;3.78;2.17;;;;;;;;;;4305031;33;20130;-63
2021/09/07 06:25:32;;;;;;;2.47;2.15;;;;;;;;;;4305121;33;20103;-64
2021/09/07 06:27:58;;;;;;;3.25;2.08;;;;;;;;;;4293024;33;20103;-65
2021/09/07 06:30:24;;;;;;;2.62;1.98;;;;;;;;;;4305376;33;20206;-64
2021/09/07 06:32:50;;;;;;;3.87;2.00;;;;;;;;;;4318493;33;20134;-62
2021/09/07 06:35:16;;;;;;;6.43;2.05;;;;;;;;;;4305064;33;20453;-62
2021/09/07 06:37:42;;;;;;;3.90;1.83;;;;;;;;;;4318524;33;20095;-61
2021/09/07 06:40:09;;;;;;;3.90;2.10;;;;;;;;;;4305209;33;20214;-63
2021/09/07 06:42:35;;;;;;;4.03;2.30;;;;;;;;;;4314032;33;20096;-62
2021/09/07 06:45:02;;;;;;;3.00;2.00;;;;;;;;;;4303845;33;20492;-65
2021/09/07 06:47:28;;;;;;;2.05;1.80;;;;;;;;;;4303859;33;20121;-64
2021/09/07 06:49:54;;;;;;;3.08;2.20;;;;;;;;;;4303806;33;20140;-64
2021/09/07 06:52:21;;;;;;;3.03;2.10;;;;;;;;;;4303686;33;20557;-64
2021/09/07 06:55:00;;;;;;;2.40;2.05;;;;;;;;;;4290651;33;20519;-64
2021/09/07 06:57:27;;;;;;;4.60;2.87;;;;;;;;;;4309169;33;20099;-64
2021/09/07 06:59:54;;;;;;;4.85;2.30;;;;;;;;;;4310401;33;20174;-64
2021/09/07 07:02:20;;;;;;;3.85;2.80;;;;;;;;;;4288775;33;20112;-65
2021/09/07 07:04:46;;;;;;;5.57;2.67;;;;;;;;;;4306958;33;20434;-65
2021/09/07 07:07:12;;;;;;;6.30;2.55;;;;;;;;;;4315845;33;20155;-64
2021/09/07 07:09:38;;;;;;;4.97;2.67;;;;;;;;;;4303767;33;20118;-62
2021/09/07 07:12:05;;;;;;;6.22;3.08;;;;;;;;;;4309040;33;20537;-62
2021/09/07 07:14:31;;;;;;;5.72;2.87;;;;;;;;;;4317851;33;20099;-62
2021/09/07 07:16:56;;;;;;;3.97;2.50;;;;;;;;;;4317754;33;20131;-63
2021/09/07 07:19:22;;;;;;;4.75;2.30;;;;;;;;;;4317981;33;20103;-64
2021/09/07 07:21:48;;;;;;;6.78;4.37;;;;;;;;;;4304749;33;20114;-64
2021/09/07 07:24:17;;;;;;;4.50;2.30;;;;;;;;;;4290427;33;20116;-64
2021/09/07 07:26:47;;;;;;;5.65;2.50;;;;;;;;;;4303304;33;20099;-64
2021/09/07 07:29:13;;;;;;;4.47;2.10;;;;;;;;;;4303251;33;20119;-63
2021/09/07 07:31:39;;;;;;;2.67;2.22;;;;;;;;;;4303692;33;20112;-63
2021/09/07 07:34:05;;;;;;;2.95;2.25;;;;;;;;;;4303439;33;20123;-63
2021/09/07 07:36:33;;;;;;;5.53;2.17;;;;;;;;;;4303244;33;20126;-63
2021/09/07 07:39:03;;;;;;;4.32;2.15;;;;;;;;;;4316773;33;20640;-62
2021/09/07 07:41:29;;;;;;;5.32;2.30;;;;;;;;;;4304618;33;20112;-62
2021/09/07 07:43:55;;;;;;;3.75;2.08;;;;;;;;;;4317765;33;20103;-62
2021/09/07 07:46:21;;;;;;;4.68;2.20;;;;;;;;;;4317763;33;20114;-62
2021/09/07 07:48:47;;;;;;;3.85;2.42;;;;;;;;;;4317837;33;20107;-62
2021/09/07 07:51:13;;;;;;;4.85;2.12;;;;;;;;;;4304542;33;20316;-62
2021/09/07 07:53:39;;;;;;;2.53;1.75;;;;;;;;;;4317657;33;20171;-62
2021/09/07 07:56:06;;;;;;;2.45;2.10;;;;;;;;;;4317673;33;20178;-62
2021/09/07 07:58:32;;;;;;;3.33;1.98;;;;;;;;;;4317697;33;20133;-61
2021/09/07 08:00:58;;;;;;;3.80;1.62;;;;;;;;;;4317595;33;20646;-62
2021/09/07 08:03:24;;;;;;;2.12;1.65;;;;;;;;;;4315960;33;20155;-62
2021/09/07 08:05:50;;;;;;;3.55;2.17;;;;;;;;;;4303224;33;20091;-62
2021/09/07 08:08:16;;;;;;;2.72;2.05;;;;;;;;;;4289854;33;20126;-61
2021/09/07 08:10:44;;;;;;;2.10;1.80;;;;;;;;;;4303787;33;20096;-61
2021/09/07 08:13:10;;;;;;;9.35;1.95;;;;;;;;;;4305138;33;20107;-65
2021/09/07 08:15:37;;;;;;;2.97;2.03;;;;;;;;;;4305362;33;20115;-65
2021/09/07 08:18:03;;;;;;;3.08;2.10;;;;;;;;;;4305328;33;20103;-65
2021/09/07 08:20:31;;;;;;;5.10;2.20;;;;;;;;;;4305133;33;20228;-65
2021/09/07 08:23:01;;;;;;;3.90;1.90;;;;;;;;;;4304896;33;20115;-65
2021/09/07 08:25:27;;;;;;;2.47;1.90;;;;;;;;;;4291723;33;20079;-64
2021/09/07 08:27:54;;;;;;;2.87;1.98;;;;;;;;;;4291637;33;20184;-65
2021/09/07 08:30:19;;;;;;;2.97;2.05;;;;;;;;;;4291845;33;20159;-65
2021/09/07 08:32:45;;;;;;;5.53;2.20;;;;;;;;;;4291453;33;20197;-65
2021/09/07 08:35:12;;;;;;;2.42;2.00;;;;;;;;;;4305465;33;20099;-65
2021/09/07 08:38:05;;;;;;;3.17;2.47;;;;;;;;;;4299289;33;20514;-65
2021/09/07 08:40:31;;;;;;;2.95;2.05;;;;;;;;;;4319602;33;20134;-64
2021/09/07 08:42:57;;;;;;;3.92;2.12;;;;;;;;;;4305835;33;20119;-63
2021/09/07 08:45:23;;;;;;;4.85;2.33;;;;;;;;;;4291080;33;20121;-63
2021/09/07 08:47:49;;;;;;;15.88;4.25;;;;;;;;;;4312442;33;20099;-64
2021/09/07 08:50:15;;;;;;;2.95;1.70;;;;;;;;;;4283319;33;20513;-63
2021/09/07 08:52:42;;;;;;;1.95;1.70;;;;;;;;;;4310618;33;20601;-64
2021/09/07 08:55:08;;;;;;;9.05;2.03;;;;;;;;;;4291286;33;20209;-64
2021/09/07 08:57:34;;;;;;;1.40;1.30;;;;;;;;;;4311009;33;20107;-66
2021/09/07 09:00:03;;;;;;;2.62;1.73;;;;;;;;;;4311541;33;20119;-62
2021/09/07 09:02:29;;;;;;;3.65;1.77;;;;;;;;;;4310366;33;20088;-63
2021/09/07 09:04:58;;;;;;;3.97;2.10;;;;;;;;;;4309997;33;20106;-62
2021/09/07 09:07:28;;;;;;;2.17;1.87;;;;;;;;;;4309167;33;20491;-63
2021/09/07 09:09:56;;;;;;;2.97;1.70;;;;;;;;;;4292396;33;20517;-63
2021/09/07 09:12:30;;;;;;;2.80;1.70;;;;;;;;;;4310462;33;20466;-63
2021/09/07 09:14:57;;;;;;;2.93;1.80;;;;;;;;;;4311466;33;20628;-63
2021/09/07 09:17:41;;;;;;;4.03;1.92;;;;;;;;;;4310336;33;20130;-63
2021/09/07 09:20:16;;;;;;;5.85;2.20;;;;;;;;;;4311610;33;20103;-62
2021/09/07 09:22:53;;;;;;;3.22;2.25;;;;;;;;;;4298769;33;20093;-62
2021/09/07 09:25:20;;;;;;;3.50;2.35;;;;;;;;;;4310037;33;20915;-62
2021/09/07 09:27:50;;;;;;;3.12;2.17;;;;;;;;;;4302553;33;20108;-62
2021/09/07 09:30:16;;;;;;;2.78;2.10;;;;;;;;;;4298012;33;20122;-60
2021/09/07 09:32:49;;;;;;;2.80;1.80;;;;;;;;;;4297135;33;20115;-61
2021/09/07 09:35:15;;;;;;;4.20;1.52;;;;;;;;;;4311042;33;20120;-60
2021/09/07 09:37:53;;;;;;;2.80;1.85;;;;;;;;;;4306955;33;20206;-62
2021/09/07 09:40:19;;;;;;;2.40;1.73;;;;;;;;;;4294481;33;20196;-63
2021/09/07 09:42:47;;;;;;;2.92;1.80;;;;;;;;;;4307421;33;20190;-63
2021/09/07 09:45:13;;;;;;;2.00;1.70;;;;;;;;;;4300743;33;20116;-63
2021/09/07 09:47:51;;;;;;;3.10;1.70;;;;;;;;;;4309848;33;20629;-63
2021/09/07 09:50:18;;;;;;;4.03;3.00;;;;;;;;;;4299414;33;20127;-63
2021/09/07 09:52:45;;;;;;;2.35;1.77;;;;;;;;;;4280499;33;20545;-61
2021/09/07 09:55:13;;;;;;;3.37;1.92;;;;;;;;;;4287399;33;20172;-62
2021/09/07 09:57:40;;;;;;;3.20;1.92;;;;;;;;;;4309058;33;20115;-62
2021/09/07 10:00:08;;;;;;;6.05;2.08;;;;;;;;;;4311565;33;20127;-62
2021/09/07 10:02:34;;;;;;;2.97;1.98;;;;;;;;;;4298054;33;20108;-63
2021/09/07 10:05:00;;;;;;;3.92;1.87;;;;;;;;;;4297778;33;20216;-63
2021/09/07 10:07:27;;;;;;;2.95;2.00;;;;;;;;;;4298891;33;20106;-63
2021/09/07 10:09:54;;;;;;;3.53;2.40;;;;;;;;;;4309097;33;20130;-63
2021/09/07 10:12:35;;;;;;;3.42;2.35;;;;;;;;;;4299900;33;20134;-63
2021/09/07 10:15:07;;;;;;;4.65;2.45;;;;;;;;;;4309341;33;20103;-61
2021/09/07 10:17:40;;;;;;;5.20;2.40;;;;;;;;;;4310046;33;20092;-60
2021/09/07 10:23:13;;;;;;;3.58;2.25;;;;;;;;;;4290684;33;20529;-61
2021/09/07 10:25:55;;;;;;;3.33;2.28;;;;;;;;;;4311765;33;20196;-62
2021/09/07 10:28:34;;;;;;;4.18;2.37;;;;;;;;;;4307837;33;20479;-60
2021/09/07 10:31:02;;;;;;;4.53;2.20;;;;;;;;;;4302294;33;20107;-60
2021/09/07 10:33:29;;;;;;;5.37;2.20;;;;;;;;;;4302478;33;20118;-60
2021/09/07 10:36:05;;;;;;;4.40;2.45;;;;;;;;;;4299816;33;20216;-60
2021/09/07 10:38:47;;;;;;;6.68;1.85;;;;;;;;;;4317177;33;20091;-60
2021/09/07 10:41:29;;;;;;;1.90;1.60;;;;;;;;;;4309187;33;20084;-61
2021/09/07 10:43:59;;;;;;;3.25;1.65;;;;;;;;;;4302051;33;20112;-61
2021/09/07 10:46:47;;;;;;;2.92;2.00;;;;;;;;;;4313909;33;20621;-61
2021/09/07 10:49:33;;;;;;;4.65;1.80;;;;;;;;;;4318393;33;20122;-61
2021/09/07 10:52:23;;;;;;;3.30;1.90;;;;;;;;;;4318507;33;20119;-60
2021/09/07 10:54:52;;;;;;;2.42;1.77;;;;;;;;;;4318915;33;20123;-64
2021/09/07 11:00:03;;;;;;;2.05;1.80;;;;;;;;;;4318754;33;20099;-61
2021/09/07 11:02:41;;;;;;;3.97;1.80;;;;;;;;;;4316958;33;20123;-61
2021/09/07 11:05:09;;;;;;;3.53;2.03;;;;;;;;;;4304888;33;20162;-61
2021/09/07 11:07:42;;;;;;;2.72;2.05;;;;;;;;;;4318057;33;20137;-61
2021/09/07 11:10:14;;;;;;;3.33;2.00;;;;;;;;;;4304641;33;20293;-61
2021/09/07 11:12:58;;;;;;;2.65;1.80;;;;;;;;;;4299015;33;20233;-61
2021/09/07 11:15:25;;;;;;;2.58;1.80;;;;;;;;;;4290149;33;20119;-61
2021/09/07 11:17:55;;;;;;;2.78;1.45;;;;;;;;;;4289951;33;20229;-63
2021/09/07 11:20:24;;;;;;;1.80;1.58;;;;;;;;;;4278500;33;20127;-63
2021/09/07 11:22:50;;;;;;;10.65;2.62;;;;;;;;;;4289823;33;20162;-64
2021/09/07 11:25:18;;;;;;;3.30;2.28;;;;;;;;;;4290212;33;20108;-62
2021/09/07 11:28:00;;;;;;;2.72;2.12;;;;;;;;;;4303504;33;20103;-63
2021/09/07 11:30:27;;;;;;;4.90;1.67;;;;;;;;;;4303487;33;20111;-63
2021/09/07 11:33:02;;;;;;;3.50;1.80;;;;;;;;;;4303141;33;20116;-63
2021/09/07 11:35:29;;;;;;;2.12;1.70;;;;;;;;;;4290378;33;20122;-63
2021/09/07 11:37:56;;;;;;;2.87;1.85;;;;;;;;;;4289749;33;20099;-63
2021/09/07 11:40:22;;;;;;;3.12;1.90;;;;;;;;;;4303657;33;20123;-63
2021/09/07 11:42:48;;;;;;;2.70;1.70;;;;;;;;;;4289870;33;20112;-65
2021/09/07 11:45:23;;;;;;;2.92;1.60;;;;;;;;;;4303836;33;20131;-64
2021/09/07 11:47:54;;;;;;;1.75;1.40;;;;;;;;;;4317457;33;20204;-65
2021/09/07 11:50:29;;;;;;;5.12;1.92;;;;;;;;;;4320162;33;20122;-65
2021/09/07 11:52:57;;;;;;;2.15;1.75;;;;;;;;;;4306654;33;20114;-65
2021/09/07 11:55:45;;;;;;;6.32;2.78;;;;;;;;;;4306785;33;20118;-65
2021/09/07 11:58:26;;;;;;;3.10;2.03;;;;;;;;;;4313908;33;20096;-66
2021/09/07 12:01:01;;;;;;;3.53;2.10;;;;;;;;;;4304697;33;20091;-67
2021/09/07 12:03:39;;;;;;;2.65;2.00;;;;;;;;;;4317711;33;20127;-67
2021/09/07 12:06:05;;;;;;;4.72;2.30;;;;;;;;;;4314241;33;20114;-67
2021/09/07 12:08:48;;;;;;;5.03;1.92;;;;;;;;;;4293935;33;20111;-67
2021/09/07 12:11:34;;;;;;;2.62;2.22;;;;;;;;;;4319794;33;20123;-67
2021/09/07 12:14:19;;;;;;;3.00;2.05;;;;;;;;;;4309336;33;20115;-66
2021/09/07 12:16:53;;;;;;;7.07;2.50;;;;;;;;;;4280623;33;20116;-66
2021/09/07 12:19:28;;;;;;;6.18;2.10;;;;;;;;;;4291836;33;20131;-65
2021/09/07 12:22:17;;;;;;;2.90;1.87;;;;;;;;;;4305435;33;20119;-66
2021/09/07 12:25:03;;;;;;;4.20;1.95;;;;;;;;;;4305321;33;20447;-66
2021/09/07 12:27:30;;;;;;;1.50;1.40;;;;;;;;;;4292676;33;21206;-65
2021/09/07 12:30:12;;;;;;;2.03;1.60;;;;;;;;;;4305495;33;20119;-66
2021/09/07 12:32:57;;;;;;;2.53;1.95;;;;;;;;;;4305279;33;20451;-66
2021/09/07 12:35:29;;;;;;;3.12;1.83;;;;;;;;;;4305197;33;20221;-66
2021/09/07 12:37:56;;;;;;;3.40;1.98;;;;;;;;;;4304922;33;20222;-66
2021/09/07 12:40:22;;;;;;;5.22;2.03;;;;;;;;;;4304976;33;20138;-66
2021/09/07 12:42:48;;;;;;;3.72;2.15;;;;;;;;;;4304934;33;20515;-67
2021/09/07 12:45:14;;;;;;;2.65;2.00;;;;;;;;;;4305210;33;20139;-67
2021/09/07 12:47:40;;;;;;;4.55;2.10;;;;;;;;;;4305157;33;20123;-66
2021/09/07 12:50:06;;;;;;;4.82;1.92;;;;;;;;;;4305052;33;20232;-65
2021/09/07 12:52:32;;;;;;;3.30;2.33;;;;;;;;;;4304755;33;20124;-61
2021/09/07 12:54:58;;;;;;;5.70;2.87;;;;;;;;;;4291049;33;20151;-62
2021/09/07 12:57:24;;;;;;;6.30;2.75;;;;;;;;;;4311574;33;20209;-64
2021/09/07 12:59:50;;;;;;;5.45;2.35;;;;;;;;;;4303959;33;20133;-63
2021/09/07 13:02:16;;;;;;;5.57;2.30;;;;;;;;;;4294509;33;20130;-63
2021/09/07 13:04:42;;;;;;;3.65;2.40;;;;;;;;;;4307128;33;20855;-62
2021/09/07 13:07:08;;;;;;;3.90;2.72;;;;;;;;;;4307745;33;20132;-61
2021/09/07 13:09:34;;;;;;;4.95;2.55;;;;;;;;;;4315310;33;20138;-62
2021/09/07 13:12:00;;;;;;;3.17;2.25;;;;;;;;;;4291058;33;20533;-61
2021/09/07 13:14:25;;;;;;;5.87;2.75;;;;;;;;;;4305670;33;20604;-63
2021/09/07 13:16:51;;;;;;;3.85;2.28;;;;;;;;;;4308798;33;20122;-63
2021/09/07 13:19:17;;;;;;;4.10;2.58;;;;;;;;;;4318344;33;20485;-64
2021/09/07 13:21:43;;;;;;;3.50;2.22;;;;;;;;;;4310196;33;20657;-60
2021/09/07 13:24:09;;;;;;;2.45;1.77;;;;;;;;;;4318695;33;20477;-62
2021/09/07 13:26:36;;;;;;;4.45;2.00;;;;;;;;;;4311909;33;20179;-63
2021/09/07 13:29:02;;;;;;;2.85;2.10;;;;;;;;;;4312262;33;20115;-62
2021/09/07 13:31:28;;;;;;;3.12;2.08;;;;;;;;;;4315814;33;20150;-63
2021/09/07 13:33:54;;;;;;;2.55;2.00;;;;;;;;;;4316064;33;20190;-64
2021/09/07 13:36:21;;;;;;;3.00;1.90;;;;;;;;;;4300355;33;20111;-64
2021/09/07 13:38:47;;;;;;;2.47;1.87;;;;;;;;;;4315495;33;20487;-62
2021/09/07 13:41:13;;;;;;;2.87;2.00;;;;;;;;;;4304307;33;20104;-64
2021/09/07 13:43:39;;;;;;;5.20;2.25;;;;;;;;;;4305988;33;20220;-64
2021/09/07 13:46:05;;;;;;;4.68;2.00;;;;;;;;;;4318861;33;20134;-63
2021/09/07 13:48:35;;;;;;;2.30;1.80;;;;;;;;;;4319017;33;20134;-63
2021/09/07 13:51:01;;;;;;;3.12;1.95;;;;;;;;;;4318913;33;20189;-63
2021/09/07 13:53:27;;;;;;;2.42;1.90;;;;;;;;;;4319099;33;20462;-64
2021/09/07 13:55:53;;;;;;;4.40;2.10;;;;;;;;;;4318942;33;20115;-62
2021/09/07 13:58:19;;;;;;;2.25;1.98;;;;;;;;;;4305188;33;20469;-62
2021/09/07 14:00:45;;;;;;;3.62;2.20;;;;;;;;;;4307818;33;20127;-62
2021/09/07 14:03:11;;;;;;;3.72;2.67;;;;;;;;;;4304420;33;20141;-62
2021/09/07 14:05:37;;;;;;;5.28;2.92;;;;;;;;;;4304204;33;20201;-62
2021/09/07 14:08:03;;;;;;;4.57;3.03;;;;;;;;;;4303745;33;20119;-62
2021/09/07 14:10:29;;;;;;;7.12;4.12;;;;;;;;;;4304164;33;20107;-61
2021/09/07 14:12:55;;;;;;;6.15;3.90;;;;;;;;;;4303873;33;20139;-61
2021/09/07 14:15:21;;;;;;;5.82;3.87;;;;;;;;;;4304123;33;20194;-62
2021/09/07 14:17:49;;;;;;;7.18;3.53;;;;;;;;;;4304008;33;20142;-61
2021/09/07 14:20:16;;;;;;;6.85;3.70;;;;;;;;;;4304138;33;20205;-61
2021/09/07 14:22:42;;;;;;;7.90;3.75;;;;;;;;;;4305487;33;20221;-62
2021/09/07 14:25:08;;;;;;;9.60;5.50;;;;;;;;;;4297263;33;20127;-63
2021/09/07 14:27:35;;;;;;;9.30;6.62;;;;;;;;;;4311321;33;20532;-65
2021/09/07 14:30:01;;;;;;;12.00;8.73;;;;;;;;;;4293102;33;20087;-65
2021/09/07 14:32:27;;;;;;;19.73;12.10;;;;;;;;;;4305139;33;20449;-68
2021/09/07 14:34:54;;;;;;;10.32;6.20;;;;;;;;;;4318799;33;20226;-68
2021/09/07 14:37:22;;;;;;;21.17;13.20;;;;;;;;;;4304716;33;20205;-66
2021/09/07 14:39:48;;;;;;;56.37;34.70;;;;;;;;;;4318116;33;20126;-68
2021/09/07 14:42:14;;;;;;;66.80;41.33;;;;;;;;;;4318473;33;20137;-70
2021/09/07 14:44:41;;;;;;;80.43;46.10;;;;;;;;;;4318651;33;20522;-67
2021/09/07 14:47:07;;;;;;;79.60;41.92;;;;;;;;;;4304551;33;20125;-68
2021/09/07 14:49:33;;;;;;;32.83;20.85;;;;;;;;;;4308026;33;20546;-68
2021/09/07 14:51:58;;;;;;;50.88;27.25;;;;;;;;;;4303740;33;20533;-65
2021/09/07 14:54:24;;;;;;;24.50;13.45;;;;;;;;;;4304139;33;20103;-66
2021/09/07 14:56:51;;;;;;;30.50;16.17;;;;;;;;;;4303637;33;20091;-65
2021/09/07 14:59:17;;;;;;;26.02;15.65;;;;;;;;;;4278381;33;20195;-64
2021/09/07 15:01:43;;;;;;;14.30;7.45;;;;;;;;;;4303560;33;20091;-65
2021/09/07 15:04:09;;;;;;;35.67;16.87;;;;;;;;;;4304056;33;20186;-66
2021/09/07 15:06:35;;;;;;;10.68;5.80;;;;;;;;;;4290558;33;20194;-66
2021/09/07 15:09:01;;;;;;;5.57;3.78;;;;;;;;;;4303753;33;20139;-66
2021/09/07 15:11:27;;;;;;;9.55;3.90;;;;;;;;;;4303663;33;20143;-65